createdAt,value
2023-04-11T00:01:25.229Z,12.80
2023-04-11T00:03:53.396Z,9.53
2023-04-11T00:06:21.561Z,12.07
2023-04-11T00:08:49.594Z,10.57
2023-04-11T00:11:17.473Z,8.73
2023-04-11T00:13:48.756Z,13.07
2023-04-11T00:16:16.984Z,9.57
2023-04-11T00:18:44.910Z,11.87
2023-04-11T00:21:13.033Z,12.60
2023-04-11T00:23:41.102Z,11.87
2023-04-11T00:26:09.171Z,11.97
2023-04-11T00:28:37.137Z,14.23
2023-04-11T00:31:05.313Z,9.80
2023-04-11T00:33:33.208Z,10.67
2023-04-11T00:36:01.281Z,9.80
2023-04-11T00:38:28.854Z,8.30
2023-04-11T00:40:56.826Z,10.63
2023-04-11T00:43:24.831Z,12.53
2023-04-11T00:45:52.680Z,10.67
2023-04-11T00:48:20.388Z,10.07
2023-04-11T00:50:48.426Z,10.87
2023-04-11T00:53:17.613Z,7.90
2023-04-11T00:55:45.352Z,10.60
2023-04-11T00:58:13.006Z,10.10
2023-04-11T01:00:41.574Z,10.33
2023-04-11T01:03:09.847Z,10.50
2023-04-11T01:05:37.895Z,9.33
2023-04-11T01:08:05.663Z,9.40
2023-04-11T01:10:33.100Z,9.20
2023-04-11T01:13:00.334Z,11.13
2023-04-11T01:15:27.508Z,8.60
2023-04-11T01:17:55.671Z,9.43
2023-04-11T01:20:22.885Z,10.33
2023-04-11T01:22:53.706Z,9.17
2023-04-11T01:25:21.691Z,9.90
2023-04-11T01:27:49.823Z,10.53
2023-04-11T01:30:17.901Z,11.80
2023-04-11T01:32:45.764Z,9.23
2023-04-11T01:35:13.577Z,8.20
2023-04-11T01:37:40.948Z,11.43
2023-04-11T01:40:10.074Z,9.83
2023-04-11T01:42:38.169Z,9.53
2023-04-11T01:45:06.706Z,9.77
2023-04-11T01:47:34.293Z,10.20
2023-04-11T01:50:02.684Z,10.07
2023-04-11T01:52:30.390Z,9.73
2023-04-11T01:54:58.381Z,9.10
2023-04-11T01:57:26.531Z,13.27
2023-04-11T01:59:54.857Z,8.13
2023-04-11T02:02:23.013Z,10.77
2023-04-11T02:04:51.256Z,10.47
2023-04-11T02:07:20.913Z,11.60
2023-04-11T02:09:48.898Z,9.20
2023-04-11T02:12:16.466Z,9.30
2023-04-11T02:14:44.767Z,9.00
2023-04-11T02:17:13.373Z,11.27
2023-04-11T02:19:45.624Z,11.10
2023-04-11T02:22:13.989Z,11.27
2023-04-11T02:24:41.566Z,14.93
2023-04-11T02:27:09.976Z,11.03
2023-04-11T02:29:38.052Z,8.63
2023-04-11T02:32:05.869Z,8.00
2023-04-11T02:34:33.475Z,7.37
2023-04-11T02:37:01.496Z,9.20
2023-04-11T02:39:30.055Z,7.63
2023-04-11T02:41:58.227Z,8.80
2023-04-11T02:44:26.485Z,6.90
2023-04-11T02:46:54.595Z,6.87
2023-04-11T02:49:22.692Z,7.67
2023-04-11T02:51:50.507Z,7.10
2023-04-11T02:54:19.588Z,8.73
2023-04-11T02:56:47.357Z,7.13
2023-04-11T02:59:15.435Z,8.50
2023-04-11T03:01:43.410Z,7.43
2023-04-11T03:04:11.657Z,7.13
2023-04-11T03:06:39.538Z,7.03
2023-04-11T03:09:06.933Z,8.70
2023-04-11T03:11:34.479Z,7.40
2023-04-11T03:14:02.645Z,9.03
2023-04-11T03:16:31.033Z,7.87
2023-04-11T03:18:58.872Z,9.23
2023-04-11T03:21:27.537Z,8.07
2023-04-11T03:23:55.732Z,8.53
2023-04-11T03:26:27.279Z,13.57
2023-04-11T03:28:59.339Z,8.40
2023-04-11T03:31:27.673Z,8.17
2023-04-11T03:33:55.390Z,6.87
2023-04-11T03:36:23.195Z,8.07
2023-04-11T03:38:51.291Z,7.90
2023-04-11T03:41:19.551Z,6.53
2023-04-11T03:43:47.598Z,6.80
2023-04-11T03:46:15.741Z,7.70
2023-04-11T03:48:47.353Z,6.90
2023-04-11T03:51:15.396Z,8.03
2023-04-11T03:53:42.963Z,8.00
2023-04-11T03:56:11.370Z,9.67
2023-04-11T03:58:39.320Z,9.50
2023-04-11T04:01:08.026Z,7.83
2023-04-11T04:03:36.374Z,7.53
2023-04-11T04:06:07.756Z,8.33
2023-04-11T04:08:35.597Z,8.77
2023-04-11T04:11:03.175Z,9.90
2023-04-11T04:13:31.429Z,9.07
2023-04-11T04:16:01.253Z,8.97
2023-04-11T04:18:30.777Z,11.03
2023-04-11T04:20:58.754Z,11.00
2023-04-11T04:23:26.947Z,10.57
2023-04-11T04:25:58.064Z,11.63
2023-04-11T04:28:26.182Z,14.77
2023-04-11T04:30:54.583Z,11.83
2023-04-11T04:33:22.548Z,8.63
2023-04-11T04:35:51.768Z,10.27
2023-04-11T04:38:20.097Z,8.17
2023-04-11T04:40:50.556Z,12.30
2023-04-11T04:43:20.869Z,11.87
2023-04-11T04:45:49.012Z,11.07
2023-04-11T04:48:17.537Z,13.03
2023-04-11T04:50:48.154Z,8.20
2023-04-11T04:53:16.174Z,11.23
2023-04-11T04:55:44.114Z,12.40
2023-04-11T04:58:11.973Z,9.67
2023-04-11T05:00:40.334Z,15.87
2023-04-11T05:03:08.638Z,7.50
2023-04-11T05:05:36.900Z,11.50
2023-04-11T05:08:05.204Z,11.23
2023-04-11T05:10:32.835Z,11.20
2023-04-11T05:13:00.260Z,10.60
2023-04-11T05:15:28.108Z,9.73
2023-04-11T05:17:57.648Z,13.30
2023-04-11T05:20:26.829Z,9.57
2023-04-11T05:22:54.441Z,11.17
2023-04-11T05:25:22.744Z,16.13
2023-04-11T05:27:50.356Z,19.77
2023-04-11T05:30:17.953Z,12.40
2023-04-11T05:32:46.664Z,19.57
2023-04-11T05:35:14.483Z,15.77
2023-04-11T05:37:43.219Z,14.57
2023-04-11T05:40:12.414Z,9.73
2023-04-11T05:42:40.112Z,17.47
2023-04-11T05:45:11.853Z,15.33
2023-04-11T05:47:39.510Z,16.07
2023-04-11T05:50:09.840Z,10.90
2023-04-11T05:52:38.011Z,8.23
2023-04-11T05:55:07.959Z,10.03
2023-04-11T05:57:35.861Z,11.10
2023-04-11T06:00:13.269Z,13.80
2023-04-11T06:02:42.780Z,9.57
2023-04-11T06:05:12.393Z,16.03
2023-04-11T06:07:40.438Z,13.73
2023-04-11T06:10:10.452Z,9.63
2023-04-11T06:12:38.548Z,10.23
2023-04-11T06:15:09.551Z,12.17
2023-04-11T06:17:37.303Z,10.03
2023-04-11T06:20:07.270Z,9.63
2023-04-11T06:22:35.387Z,7.27
2023-04-11T06:25:03.312Z,9.07
2023-04-11T06:27:33.720Z,7.50
2023-04-11T06:30:01.439Z,5.67
2023-04-11T06:32:29.131Z,8.17
2023-04-11T06:34:57.279Z,8.80
2023-04-11T06:37:24.751Z,11.27
2023-04-11T06:39:53.211Z,12.27
2023-04-11T06:42:20.988Z,9.93
2023-04-11T06:44:50.316Z,7.70
2023-04-11T06:47:18.434Z,8.73
2023-04-11T06:49:46.362Z,16.53
2023-04-11T06:52:13.835Z,7.33
2023-04-11T06:54:41.954Z,6.93
2023-04-11T06:57:10.943Z,10.93
2023-04-11T06:59:38.504Z,7.00
2023-04-11T07:02:07.309Z,9.70
2023-04-11T07:04:36.203Z,9.20
2023-04-11T07:07:04.698Z,9.93
2023-04-11T07:09:32.668Z,12.77
2023-04-11T07:12:01.308Z,10.83
2023-04-11T07:14:29.317Z,10.33
2023-04-11T07:16:57.977Z,9.47
2023-04-11T07:19:25.767Z,8.20
2023-04-11T07:21:54.735Z,7.93
2023-04-11T07:24:22.506Z,6.30
2023-04-11T07:26:52.030Z,7.77
2023-04-11T07:29:19.405Z,9.67
2023-04-11T07:31:47.175Z,6.27
2023-04-11T07:34:14.776Z,10.33
2023-04-11T07:36:42.406Z,12.30
2023-04-11T07:39:12.321Z,6.53
2023-04-11T07:41:40.428Z,6.30
2023-04-11T07:44:09.478Z,4.97
2023-04-11T07:46:37.665Z,8.20
2023-04-11T07:49:05.438Z,6.13
2023-04-11T07:51:33.350Z,5.47
2023-04-11T07:54:01.186Z,6.70
2023-04-11T07:56:29.337Z,5.73
2023-04-11T07:58:58.616Z,6.27
2023-04-11T08:01:26.870Z,6.73
2023-04-11T08:03:55.013Z,5.87
2023-04-11T08:06:23.410Z,5.50
2023-04-11T08:08:52.174Z,3.80
2023-04-11T08:11:20.163Z,4.47
2023-04-11T08:13:47.787Z,6.20
2023-04-11T08:16:15.372Z,8.47
2023-04-11T08:18:43.194Z,7.00
2023-04-11T08:21:10.902Z,8.47
2023-04-11T08:23:39.770Z,8.23
2023-04-11T08:26:08.666Z,8.10
2023-04-11T08:28:36.394Z,10.60
2023-04-11T08:31:05.568Z,5.50
2023-04-11T08:33:33.709Z,4.90
2023-04-11T08:36:01.949Z,9.80
2023-04-11T08:38:30.097Z,5.97
2023-04-11T08:40:58.199Z,7.00
2023-04-11T08:43:25.907Z,6.93
2023-04-11T08:45:53.758Z,7.33
2023-04-11T08:48:25.484Z,6.90
2023-04-11T08:50:53.624Z,9.77
2023-04-11T08:53:24.655Z,10.63
2023-04-11T08:55:51.979Z,5.83
2023-04-11T08:58:20.369Z,8.00
2023-04-11T09:00:48.311Z,15.23
2023-04-11T09:03:17.164Z,7.57
2023-04-11T09:05:45.265Z,8.97
2023-04-11T09:08:13.817Z,6.83
2023-04-11T09:10:42.236Z,7.47
2023-04-11T09:13:35.671Z,6.57
2023-04-11T09:16:33.876Z,6.37
2023-04-11T09:19:01.763Z,6.30
2023-04-11T09:21:30.244Z,8.27
2023-04-11T09:24:14.573Z,8.30
2023-04-11T09:26:42.805Z,9.43
2023-04-11T09:29:11.054Z,7.30
2023-04-11T09:31:42.924Z,6.87
2023-04-11T09:34:12.049Z,7.87
2023-04-11T09:36:39.296Z,7.33
2023-04-11T09:39:19.228Z,9.10
2023-04-11T09:41:46.330Z,8.17
2023-04-11T09:44:14.030Z,11.53
2023-04-11T09:46:57.311Z,7.60
2023-04-11T09:49:24.740Z,6.70
2023-04-11T09:51:51.914Z,7.70
2023-04-11T09:54:22.415Z,9.50
2023-04-11T09:56:49.554Z,9.17
2023-04-11T09:59:17.566Z,7.27
2023-04-11T10:01:45.551Z,9.60
2023-04-11T10:04:13.967Z,8.37
2023-04-11T10:06:46.337Z,6.93
2023-04-11T10:09:13.836Z,7.83
2023-04-11T10:11:44.911Z,7.50
2023-04-11T10:14:39.317Z,9.53
2023-04-11T10:17:23.535Z,8.47
2023-04-11T10:19:56.425Z,7.37
2023-04-11T10:22:41.845Z,9.97
2023-04-11T10:25:19.828Z,7.30
2023-04-11T10:28:01.895Z,9.47
2023-04-11T10:30:40.841Z,8.60
2023-04-11T10:33:12.172Z,8.53
2023-04-11T10:36:05.628Z,9.20
2023-04-11T10:38:43.006Z,11.23
2023-04-11T10:41:31.923Z,8.90
2023-04-11T10:44:35.377Z,7.30
2023-04-11T10:47:03.556Z,9.60
2023-04-11T10:49:37.793Z,9.23
2023-04-11T10:52:22.526Z,10.10
2023-04-11T10:54:53.104Z,9.00
2023-04-11T10:57:22.327Z,10.83
2023-04-11T10:59:52.279Z,8.77
2023-04-11T11:02:22.104Z,10.57
2023-04-11T11:04:50.419Z,11.63
2023-04-11T11:07:18.846Z,10.60
2023-04-11T11:09:51.416Z,9.73
2023-04-11T11:12:19.353Z,9.33
2023-04-11T11:14:48.016Z,11.23
2023-04-11T11:17:16.540Z,10.97
2023-04-11T11:19:45.058Z,11.77
2023-04-11T11:22:38.837Z,11.23
2023-04-11T11:25:11.206Z,9.23
2023-04-11T11:27:38.908Z,11.40
2023-04-11T11:30:15.844Z,11.03
2023-04-11T11:35:14.514Z,12.43
2023-04-11T11:37:42.131Z,11.60
2023-04-11T11:40:13.357Z,9.63
2023-04-11T11:42:41.374Z,10.63
2023-04-11T11:45:23.750Z,9.40
2023-04-11T11:47:51.632Z,13.37
2023-04-11T11:50:57.648Z,10.13
2023-04-11T11:53:25.576Z,9.40
2023-04-11T11:55:52.679Z,10.10
2023-04-11T11:58:20.417Z,10.23
2023-04-11T12:00:51.327Z,8.67
2023-04-11T12:03:23.528Z,11.47
2023-04-11T12:05:59.703Z,13.73
2023-04-11T12:08:34.151Z,12.25
2023-04-11T12:11:02.702Z,11.17
2023-04-11T12:13:31.148Z,8.87
2023-04-11T12:15:58.823Z,13.57
2023-04-11T12:18:27.784Z,10.20
2023-04-11T12:20:55.764Z,9.33
2023-04-11T12:23:24.163Z,9.77
2023-04-11T12:25:52.197Z,10.77
2023-04-11T12:28:19.645Z,12.50
2023-04-11T12:30:47.671Z,9.70
2023-04-11T12:33:16.538Z,10.63
2023-04-11T12:35:44.978Z,8.03
2023-04-11T12:38:14.977Z,8.47
2023-04-11T12:40:46.719Z,9.27
2023-04-11T12:43:14.371Z,10.03
2023-04-11T12:45:42.718Z,11.33
2023-04-11T12:48:10.568Z,9.63
2023-04-11T12:50:38.648Z,12.98
2023-04-11T12:53:06.682Z,12.32
2023-04-11T12:55:37.858Z,7.55
2023-04-11T12:58:08.093Z,10.95
2023-04-11T13:00:35.883Z,6.72
2023-04-11T13:03:04.923Z,9.10
2023-04-11T13:05:33.258Z,11.93
2023-04-11T13:08:01.637Z,10.70
2023-04-11T13:10:29.455Z,7.95
2023-04-11T13:13:00.556Z,8.07
2023-04-11T13:15:30.876Z,5.97
2023-04-11T13:17:58.981Z,8.05
2023-04-11T13:20:26.353Z,8.40
2023-04-11T13:22:54.435Z,7.03
2023-04-11T13:25:22.348Z,9.00
2023-04-11T13:27:50.309Z,7.93
2023-04-11T13:30:18.219Z,7.40
2023-04-11T13:32:46.258Z,9.18
2023-04-11T13:35:14.126Z,9.55
2023-04-11T13:37:42.144Z,7.32
2023-04-11T13:40:12.422Z,8.60
2023-04-11T13:42:42.939Z,7.85
2023-04-11T13:45:13.253Z,8.80
2023-04-11T13:47:41.031Z,9.50
2023-04-11T13:50:10.798Z,9.10
2023-04-11T13:52:38.590Z,7.95
2023-04-11T13:55:08.720Z,8.93
2023-04-11T13:57:36.469Z,8.35
2023-04-11T14:00:14.697Z,10.90
2023-04-11T14:02:42.315Z,6.43
2023-04-11T14:05:11.412Z,7.97
2023-04-11T14:07:39.582Z,9.27
2023-04-11T14:10:08.202Z,7.90
2023-04-11T14:12:36.313Z,7.13
2023-04-11T14:15:05.908Z,9.07
2023-04-11T14:17:34.022Z,7.27
2023-04-11T14:20:01.967Z,6.90
2023-04-11T14:22:30.064Z,7.47
2023-04-11T14:24:58.181Z,8.97
2023-04-11T14:27:26.428Z,7.87
2023-04-11T14:29:54.485Z,7.97
2023-04-11T14:32:21.978Z,6.30
2023-04-11T14:34:49.678Z,7.93
2023-04-11T14:37:17.573Z,8.53
2023-04-11T14:39:45.276Z,6.60
2023-04-11T14:42:13.548Z,7.37
2023-04-11T14:44:43.151Z,7.33
2023-04-11T14:47:10.936Z,5.33
2023-04-11T14:49:39.269Z,6.47
2023-04-11T14:52:06.855Z,8.67
2023-04-11T14:54:34.974Z,5.57
2023-04-11T14:57:03.846Z,7.87
2023-04-11T14:59:31.947Z,8.13
2023-04-11T15:02:00.021Z,5.60
2023-04-11T15:04:28.283Z,6.20
2023-04-11T15:06:57.005Z,5.03
2023-04-11T15:09:25.077Z,8.40
2023-04-11T15:11:59.764Z,7.50
2023-04-11T15:14:29.580Z,6.87
2023-04-11T15:16:57.443Z,5.20
2023-04-11T15:19:25.783Z,9.33
2023-04-11T15:21:53.905Z,6.97
2023-04-11T15:24:21.664Z,6.43
2023-04-11T15:26:49.097Z,7.90
2023-04-11T15:29:19.481Z,6.30
2023-04-11T15:31:47.656Z,10.40
2023-04-11T15:34:15.638Z,4.73
2023-04-11T15:36:45.196Z,7.03
2023-04-11T15:39:13.080Z,4.93
2023-04-11T15:41:41.517Z,4.83
2023-04-11T15:44:09.525Z,9.60
2023-04-11T15:46:37.777Z,5.40
2023-04-11T15:49:06.060Z,5.33
2023-04-11T15:51:33.979Z,6.70
2023-04-11T15:54:01.838Z,4.83
2023-04-11T15:56:34.084Z,4.60
2023-04-11T15:59:01.915Z,7.07
2023-04-11T16:01:30.126Z,6.70
2023-04-11T16:03:58.989Z,10.80
2023-04-11T16:06:27.484Z,4.63
2023-04-11T16:08:55.485Z,6.33
2023-04-11T16:11:23.558Z,5.43
2023-04-11T16:13:51.787Z,6.40
2023-04-11T16:16:20.017Z,5.57
2023-04-11T16:18:47.925Z,6.80
2023-04-11T16:21:15.849Z,7.27
2023-04-11T16:23:44.346Z,7.03
2023-04-11T16:26:12.317Z,8.97
2023-04-11T16:28:40.408Z,5.87
2023-04-11T16:31:09.392Z,5.53
2023-04-11T16:33:37.012Z,5.73
2023-04-11T16:36:05.709Z,5.70
2023-04-11T16:38:33.734Z,7.33
2023-04-11T16:41:01.473Z,6.40
2023-04-11T16:43:29.298Z,8.00
2023-04-11T16:45:57.367Z,5.07
2023-04-11T16:48:24.944Z,6.38
2023-04-11T16:50:53.262Z,5.78
2023-04-11T16:53:21.252Z,8.18
2023-04-11T16:55:49.363Z,6.90
2023-04-11T16:58:17.346Z,5.70
2023-04-11T17:00:49.260Z,6.83
2023-04-11T17:03:20.072Z,7.13
2023-04-11T17:05:47.948Z,11.27
2023-04-11T17:08:16.324Z,10.43
2023-04-11T17:10:44.304Z,5.23
2023-04-11T17:13:12.085Z,6.63
2023-04-11T17:15:39.772Z,5.50
2023-04-11T17:18:08.138Z,5.33
2023-04-11T17:20:36.162Z,7.83
2023-04-11T17:23:04.189Z,7.73
2023-04-11T17:25:32.051Z,5.40
2023-04-11T17:28:00.695Z,4.73
2023-04-11T17:32:57.614Z,8.97
2023-04-11T17:35:25.471Z,8.60
2023-04-11T17:37:53.546Z,6.17
2023-04-11T17:40:21.360Z,8.80
2023-04-11T17:42:49.843Z,12.80
2023-04-11T17:45:21.009Z,9.40
2023-04-11T17:47:48.693Z,6.43
2023-04-11T17:50:17.156Z,8.60
2023-04-11T17:52:45.217Z,10.00
2023-04-11T17:55:13.774Z,9.57
2023-04-11T17:57:41.267Z,16.47
2023-04-11T18:00:17.636Z,21.53
2023-04-11T18:02:46.724Z,6.47
2023-04-11T18:05:23.981Z,9.40
2023-04-11T18:07:57.424Z,10.23
2023-04-11T18:10:25.899Z,14.03
2023-04-11T18:12:53.246Z,9.23
2023-04-11T18:15:24.198Z,6.83
2023-04-11T18:17:55.229Z,6.47
2023-04-11T18:20:23.184Z,7.93
2023-04-11T18:22:52.390Z,6.80
2023-04-11T18:25:20.237Z,6.87
2023-04-11T18:27:47.872Z,9.27
2023-04-11T18:30:16.620Z,13.80
2023-04-11T18:32:49.385Z,18.87
2023-04-11T18:35:18.463Z,19.73
2023-04-11T18:37:46.466Z,19.40
2023-04-11T18:40:14.288Z,16.10
2023-04-11T18:42:49.478Z,17.60
2023-04-11T18:45:20.820Z,17.03
2023-04-11T18:47:49.203Z,14.17
2023-04-11T18:50:17.395Z,12.43
2023-04-11T18:52:46.598Z,13.30
2023-04-11T18:55:17.304Z,11.43
2023-04-11T18:57:48.152Z,11.10
2023-04-11T19:00:19.455Z,11.87
2023-04-11T19:02:47.814Z,11.70
2023-04-11T19:05:17.314Z,13.83
2023-04-11T19:07:45.895Z,11.67
2023-04-11T19:10:13.716Z,13.53
2023-04-11T19:12:41.519Z,11.13
2023-04-11T19:15:11.770Z,12.37
2023-04-11T19:17:39.560Z,12.27
2023-04-11T19:20:13.236Z,13.47
2023-04-11T19:22:41.771Z,14.90
2023-04-11T19:25:11.070Z,10.63
2023-04-11T19:27:42.640Z,13.50
2023-04-11T19:30:14.102Z,16.87
2023-04-11T19:32:44.042Z,20.93
2023-04-11T19:35:14.780Z,17.77
2023-04-11T19:37:42.802Z,14.80
2023-04-11T19:40:13.600Z,12.83
2023-04-11T19:42:41.856Z,13.53
2023-04-11T19:45:12.368Z,13.70
2023-04-11T19:47:41.036Z,13.77
2023-04-11T19:50:14.416Z,12.30
2023-04-11T19:52:42.470Z,11.63
2023-04-11T19:55:11.795Z,13.50
2023-04-11T19:57:40.232Z,14.10
2023-04-11T20:00:13.448Z,10.50
2023-04-11T20:02:44.779Z,9.97
2023-04-11T20:05:13.832Z,10.73
2023-04-11T20:07:42.495Z,9.03
2023-04-11T20:10:11.411Z,10.67
2023-04-11T20:12:39.408Z,9.73
2023-04-11T20:15:20.519Z,8.30
2023-04-11T20:17:50.155Z,10.13
2023-04-11T20:20:21.946Z,12.07
2023-04-11T20:22:49.634Z,8.27
2023-04-11T20:25:21.620Z,11.80
2023-04-11T20:28:02.171Z,11.73
2023-04-11T20:30:30.815Z,10.77
2023-04-11T20:32:58.713Z,10.00
2023-04-11T20:35:26.773Z,13.40
2023-04-11T20:37:54.915Z,14.33
2023-04-11T20:40:22.819Z,12.87
2023-04-11T20:42:50.759Z,13.83
2023-04-11T20:45:20.606Z,12.00
2023-04-11T20:47:49.931Z,12.03
2023-04-11T20:50:19.330Z,12.43
2023-04-11T20:52:47.534Z,13.03
2023-04-11T20:55:15.812Z,14.67
2023-04-11T20:57:44.789Z,11.47
2023-04-11T21:00:14.849Z,11.73
2023-04-11T21:02:44.404Z,14.13
2023-04-11T21:05:13.229Z,12.97
2023-04-11T21:07:42.274Z,12.90
2023-04-11T21:10:12.129Z,13.20
2023-04-11T21:12:39.817Z,14.30
2023-04-11T21:15:11.978Z,13.53
2023-04-11T21:17:40.073Z,18.50
2023-04-11T21:20:18.329Z,15.00
2023-04-11T21:22:47.809Z,14.93
2023-04-11T21:25:16.030Z,13.93
2023-04-11T21:27:43.770Z,12.77
2023-04-11T21:30:13.236Z,13.13
2023-04-11T21:32:40.845Z,12.87
2023-04-11T21:35:10.886Z,12.97
2023-04-11T21:37:39.066Z,14.77
2023-04-11T21:40:09.365Z,15.60
2023-04-11T21:42:36.962Z,12.30
2023-04-11T21:45:05.949Z,14.20
2023-04-11T21:47:33.996Z,14.53
2023-04-11T21:50:03.056Z,17.50
2023-04-11T21:52:30.564Z,10.53
2023-04-11T21:54:58.055Z,12.13
2023-04-11T21:57:26.102Z,12.10
2023-04-11T21:59:54.741Z,11.10
2023-04-11T22:02:22.780Z,11.40
2023-04-11T22:05:05.576Z,11.67
2023-04-11T22:07:38.544Z,13.60
2023-04-11T22:10:12.016Z,13.17
2023-04-11T22:12:41.715Z,10.30
2023-04-11T22:15:13.091Z,14.20
2023-04-11T22:17:42.509Z,10.07
2023-04-11T22:20:12.770Z,11.93
2023-04-11T22:22:40.645Z,13.33
2023-04-11T22:25:10.021Z,11.33
2023-04-11T22:27:38.473Z,12.10
2023-04-11T22:30:09.783Z,15.43
2023-04-11T22:32:38.076Z,11.03
2023-04-11T22:35:08.280Z,15.73
2023-04-11T22:37:36.332Z,12.90
2023-04-11T22:40:06.262Z,14.33
2023-04-11T22:42:33.447Z,14.93
2023-04-11T22:45:01.133Z,13.20
2023-04-11T22:47:28.786Z,10.03
2023-04-11T22:50:00.596Z,12.27
2023-04-11T22:52:30.406Z,13.07
2023-04-11T22:54:58.242Z,10.10
2023-04-11T22:57:26.151Z,12.53
2023-04-11T22:59:53.815Z,12.17
2023-04-11T23:02:21.516Z,12.40
2023-04-11T23:04:49.624Z,12.00
2023-04-11T23:07:17.769Z,13.17
2023-04-11T23:09:46.237Z,10.57
2023-04-11T23:12:14.348Z,11.27
2023-04-11T23:14:42.929Z,10.20
2023-04-11T23:17:10.752Z,11.63
2023-04-11T23:19:38.225Z,11.13
2023-04-11T23:22:06.501Z,13.23
2023-04-11T23:24:34.510Z,11.47
2023-04-11T23:27:02.400Z,11.20
2023-04-11T23:29:30.195Z,13.10
2023-04-11T23:31:58.199Z,12.77
2023-04-11T23:34:26.044Z,11.13
2023-04-11T23:36:54.056Z,10.37
2023-04-11T23:39:21.621Z,12.63
2023-04-11T23:41:49.380Z,11.93
2023-04-11T23:44:23.401Z,13.60
2023-04-11T23:46:51.029Z,13.73
2023-04-11T23:49:18.629Z,15.57
2023-04-11T23:51:46.051Z,12.60
2023-04-11T23:54:14.045Z,12.30
2023-04-11T23:56:43.739Z,10.17
2023-04-11T23:59:11.600Z,12.00
